Time;durP1;ratioP1;P1;durP2;ratioP2;P2;SDS_P1;SDS_P2;PMS_P1;PMS_P2;Temp;Humidity;BMP_temperature;BMP_pressure;BME280_temperature;BME280_humidity;BME280_pressure;Samples;Min_cycle;Max_cycle;Signal;HPM_P1;HPM_P2
2021/06/22 00:00:41;;;;;;;;;1.50;1.00;;;;;;;;5035117;28;45536;-79
2021/06/22 00:03:06;;;;;;;;;1.75;1.00;;;;;;;;5028631;28;45710;-79
2021/06/22 00:05:32;;;;;;;;;1.00;1.00;;;;;;;;5042425;28;45576;-79
2021/06/22 00:07:58;;;;;;;;;2.00;0.75;;;;;;;;5037045;28;47359;-79
2021/06/22 00:10:24;;;;;;;;;4.50;1.50;;;;;;;;5014320;28;45828;-80
2021/06/22 00:12:50;;;;;;;;;3.00;2.00;;;;;;;;5010077;28;45358;-79
2021/06/22 00:15:17;;;;;;;;;1.00;1.00;;;;;;;;5031772;28;45383;-79
2021/06/22 00:17:43;;;;;;;;;3.50;2.25;;;;;;;;5033803;28;45565;-79
2021/06/22 00:20:09;;;;;;;;;1.00;1.00;;;;;;;;5028861;28;45660;-79
2021/06/22 00:22:35;;;;;;;;;2.00;2.00;;;;;;;;5036048;28;49270;-79
2021/06/22 00:25:00;;;;;;;;;1.25;1.25;;;;;;;;5036456;28;45471;-79
2021/06/22 00:27:26;;;;;;;;;2.00;2.00;;;;;;;;5028539;28;47260;-79
2021/06/22 00:29:51;;;;;;;;;1.50;0.75;;;;;;;;5039955;28;46070;-79
2021/06/22 00:32:19;;;;;;;;;2.75;1.00;;;;;;;;5043279;28;48057;-79
2021/06/22 00:34:47;;;;;;;;;1.25;1.00;;;;;;;;5030603;28;46249;-79
2021/06/22 00:37:15;;;;;;;;;1.00;1.00;;;;;;;;5020686;28;45417;-79
2021/06/22 00:39:41;;;;;;;;;1.00;1.00;;;;;;;;5022548;28;45607;-79
2021/06/22 00:42:06;;;;;;;;;1.00;1.00;;;;;;;;5023525;28;45551;-79
2021/06/22 00:44:32;;;;;;;;;1.00;1.00;;;;;;;;5045624;28;45547;-79
2021/06/22 00:46:57;;;;;;;;;1.50;1.50;;;;;;;;5036537;28;45962;-79
2021/06/22 00:49:22;;;;;;;;;3.00;2.00;;;;;;;;5016008;28;46403;-80
2021/06/22 00:51:48;;;;;;;;;1.75;1.75;;;;;;;;5036866;28;45474;-80
2021/06/22 00:54:13;;;;;;;;;2.00;1.00;;;;;;;;5035897;28;45521;-79
2021/06/22 00:56:38;;;;;;;;;3.00;1.00;;;;;;;;5029477;28;53308;-79
2021/06/22 00:59:03;;;;;;;;;1.00;1.00;;;;;;;;5022332;28;45778;-79
2021/06/22 01:01:29;;;;;;;;;1.00;1.00;;;;;;;;5033302;28;45925;-79
2021/06/22 01:03:55;;;;;;;;;2.00;2.00;;;;;;;;5036587;28;45594;-78
2021/06/22 01:06:21;;;;;;;;;1.00;1.00;;;;;;;;5018890;28;48369;-79
2021/06/22 01:08:47;;;;;;;;;1.00;1.00;;;;;;;;5042727;28;45500;-79
2021/06/22 01:11:13;;;;;;;;;2.00;0.00;;;;;;;;5034595;28;45503;-79
2021/06/22 01:13:38;;;;;;;;;1.50;1.50;;;;;;;;5040508;28;45557;-78
2021/06/22 01:16:04;;;;;;;;;1.00;1.00;;;;;;;;5046791;28;49191;-79
2021/06/22 01:18:29;;;;;;;;;2.50;1.00;;;;;;;;5029705;28;45690;-79
2021/06/22 01:20:58;;;;;;;;;1.00;1.00;;;;;;;;5024856;28;45808;-80
2021/06/22 01:23:23;;;;;;;;;3.75;1.00;;;;;;;;5035946;28;45323;-79
2021/06/22 01:25:49;;;;;;;;;0.75;0.75;;;;;;;;5022440;28;48008;-79
2021/06/22 01:28:14;;;;;;;;;1.25;1.25;;;;;;;;5041793;28;45484;-79
2021/06/22 01:30:40;;;;;;;;;1.00;1.00;;;;;;;;5034431;28;46173;-79
2021/06/22 01:33:06;;;;;;;;;1.00;1.00;;;;;;;;5033743;28;45557;-78
2021/06/22 01:35:32;;;;;;;;;1.00;1.00;;;;;;;;5040820;28;51291;-79
2021/06/22 01:38:05;;;;;;;;;4.50;3.75;;;;;;;;5028929;28;45529;-79
2021/06/22 01:40:47;;;;;;;;;2.25;2.25;;;;;;;;5032766;28;45513;-79
2021/06/22 01:45:50;;;;;;;;;4.75;2.00;;;;;;;;5063237;27;45365;-79
2021/06/22 01:50:53;;;;;;;;;2.75;2.00;;;;;;;;5748122;22;46314;-92
2021/06/22 01:53:20;;;;;;;;;2.25;1.25;;;;;;;;5261889;22;45599;-80
2021/06/22 01:55:47;;;;;;;;;3.00;1.75;;;;;;;;5067696;27;45585;-79
2021/06/22 01:58:13;;;;;;;;;2.25;2.00;;;;;;;;5070520;27;45606;-79
2021/06/22 02:00:39;;;;;;;;;6.75;2.50;;;;;;;;5066246;27;45627;-79
2021/06/22 02:03:05;;;;;;;;;3.00;3.00;;;;;;;;5077798;27;61744;-79
2021/06/22 02:05:31;;;;;;;;;4.50;2.75;;;;;;;;5084729;27;46366;-79
2021/06/22 02:07:56;;;;;;;;;4.75;3.75;;;;;;;;5076208;27;45816;-79
2021/06/22 02:10:24;;;;;;;;;4.75;2.00;;;;;;;;5074983;27;45528;-81
2021/06/22 02:12:49;;;;;;;;;2.00;2.00;;;;;;;;5061992;27;46454;-79
2021/06/22 02:15:15;;;;;;;;;2.50;2.00;;;;;;;;5065700;27;45520;-79
2021/06/22 02:17:40;;;;;;;;;2.00;2.00;;;;;;;;5061776;27;46284;-79
2021/06/22 02:20:06;;;;;;;;;4.00;2.25;;;;;;;;5067972;27;45476;-79
2021/06/22 02:22:32;;;;;;;;;1.50;1.25;;;;;;;;5072860;27;45557;-79
2021/06/22 02:24:57;;;;;;;;;2.25;2.25;;;;;;;;5076840;27;47575;-79
2021/06/22 02:27:23;;;;;;;;;4.75;2.00;;;;;;;;5075913;27;46153;-79
2021/06/22 02:29:48;;;;;;;;;3.00;3.00;;;;;;;;5082947;27;45634;-79
2021/06/22 02:32:14;;;;;;;;;3.00;2.75;;;;;;;;5079661;27;45756;-79
2021/06/22 02:34:39;;;;;;;;;2.00;2.00;;;;;;;;5075031;27;45607;-79
2021/06/22 02:37:04;;;;;;;;;2.00;2.00;;;;;;;;5083467;27;45563;-79
2021/06/22 02:39:30;;;;;;;;;4.00;3.00;;;;;;;;5071744;27;45769;-79
2021/06/22 02:41:55;;;;;;;;;2.00;2.00;;;;;;;;5055321;27;46527;-80
2021/06/22 02:44:20;;;;;;;;;3.00;2.00;;;;;;;;5077127;27;46306;-81
2021/06/22 02:46:45;;;;;;;;;2.50;2.00;;;;;;;;5066820;27;45521;-79
2021/06/22 02:49:11;;;;;;;;;3.00;1.75;;;;;;;;5075444;27;45736;-79
2021/06/22 02:51:36;;;;;;;;;3.00;2.00;;;;;;;;5069964;27;45555;-79
2021/06/22 02:54:01;;;;;;;;;2.25;2.00;;;;;;;;5058212;27;45663;-79
2021/06/22 02:56:26;;;;;;;;;2.25;2.00;;;;;;;;5077206;27;45470;-81
2021/06/22 02:58:52;;;;;;;;;2.00;2.00;;;;;;;;5056961;27;45482;-81
2021/06/22 03:01:17;;;;;;;;;2.33;2.00;;;;;;;;5072239;27;45954;-81
2021/06/22 03:03:42;;;;;;;;;5.67;3.00;;;;;;;;5075485;27;46003;-81
2021/06/22 03:06:07;;;;;;;;;5.00;4.00;;;;;;;;5077019;27;45529;-81
2021/06/22 03:08:33;;;;;;;;;4.75;4.00;;;;;;;;5076352;27;45463;-84
2021/06/22 03:10:58;;;;;;;;;5.00;4.50;;;;;;;;5065175;27;45501;-81
2021/06/22 03:13:23;;;;;;;;;4.75;3.00;;;;;;;;5081556;27;46143;-81
2021/06/22 03:15:48;;;;;;;;;6.00;4.33;;;;;;;;5081609;27;51829;-81
2021/06/22 03:18:13;;;;;;;;;4.00;4.00;;;;;;;;5077422;27;46104;-82
2021/06/22 03:20:39;;;;;;;;;6.00;5.00;;;;;;;;5075701;27;45469;-81
2021/06/22 03:23:04;;;;;;;;;6.67;6.67;;;;;;;;5065108;27;46324;-81
2021/06/22 03:25:29;;;;;;;;;5.00;4.50;;;;;;;;5073003;27;45736;-81
2021/06/22 03:27:56;;;;;;;;;4.25;4.25;;;;;;;;5083091;27;45491;-81
2021/06/22 03:30:21;;;;;;;;;6.00;4.00;;;;;;;;5068510;27;45203;-81
2021/06/22 03:32:47;;;;;;;;;7.00;5.25;;;;;;;;5074081;27;50836;-81
2021/06/22 03:35:13;;;;;;;;;6.50;5.00;;;;;;;;5079132;27;45922;-81
2021/06/22 03:37:38;;;;;;;;;9.00;5.25;;;;;;;;5078787;27;45544;-82
2021/06/22 03:40:07;;;;;;;;;6.33;5.00;;;;;;;;5079384;27;45444;-82
2021/06/22 03:42:33;;;;;;;;;5.50;5.50;;;;;;;;5072578;27;46239;-81
2021/06/22 03:44:59;;;;;;;;;7.00;5.75;;;;;;;;5073942;27;45625;-82
2021/06/22 03:47:24;;;;;;;;;6.50;6.00;;;;;;;;5082290;27;45577;-81
2021/06/22 03:49:49;;;;;;;;;7.75;6.00;;;;;;;;5074503;27;45531;-81
2021/06/22 03:52:15;;;;;;;;;6.00;6.00;;;;;;;;5070638;27;46263;-81
2021/06/22 03:54:40;;;;;;;;;5.75;5.75;;;;;;;;5074712;27;45473;-83
2021/06/22 03:57:05;;;;;;;;;6.00;6.00;;;;;;;;5055768;27;45504;-80
2021/06/22 03:59:31;;;;;;;;;7.00;5.50;;;;;;;;5084684;27;45547;-80
2021/06/22 04:01:56;;;;;;;;;8.00;6.00;;;;;;;;5073665;27;46138;-80
2021/06/22 04:04:21;;;;;;;;;6.25;6.25;;;;;;;;5080854;27;45762;-80
2021/06/22 04:06:46;;;;;;;;;8.25;6.00;;;;;;;;5077031;27;45607;-80
2021/06/22 04:09:11;;;;;;;;;7.50;5.00;;;;;;;;5076711;27;45517;-80
2021/06/22 04:11:37;;;;;;;;;7.67;6.00;;;;;;;;5075342;27;45527;-80
2021/06/22 04:14:02;;;;;;;;;5.00;5.00;;;;;;;;5078991;27;50411;-80
2021/06/22 04:16:27;;;;;;;;;7.00;6.00;;;;;;;;5081904;27;45686;-80
2021/06/22 04:18:53;;;;;;;;;4.50;4.50;;;;;;;;5083289;27;45847;-80
2021/06/22 04:21:18;;;;;;;;;4.75;3.75;;;;;;;;5066948;27;47431;-80
2021/06/22 04:23:43;;;;;;;;;6.00;4.25;;;;;;;;5086889;27;45518;-80
2021/06/22 04:26:08;;;;;;;;;6.00;5.50;;;;;;;;5081448;27;46119;-80
2021/06/22 04:28:34;;;;;;;;;5.00;5.00;;;;;;;;5075356;27;45760;-80
2021/06/22 04:30:59;;;;;;;;;6.25;5.00;;;;;;;;5087631;27;46022;-80
2021/06/22 04:33:24;;;;;;;;;6.50;6.25;;;;;;;;5075868;27;45778;-80
2021/06/22 04:35:50;;;;;;;;;6.25;6.00;;;;;;;;5069237;27;45457;-81
2021/06/22 04:38:15;;;;;;;;;4.50;4.50;;;;;;;;5077338;27;45531;-80
2021/06/22 04:40:40;;;;;;;;;5.00;4.00;;;;;;;;5066154;27;48255;-80
2021/06/22 04:43:06;;;;;;;;;4.00;3.50;;;;;;;;5080560;27;45639;-80
2021/06/22 04:45:31;;;;;;;;;2.75;2.00;;;;;;;;5070827;27;45632;-80
2021/06/22 04:47:57;;;;;;;;;3.75;2.00;;;;;;;;5069781;27;45505;-80
2021/06/22 04:50:23;;;;;;;;;3.25;3.00;;;;;;;;5081176;27;45988;-80
2021/06/22 04:52:48;;;;;;;;;2.50;2.50;;;;;;;;5072360;27;45403;-80
2021/06/22 04:55:15;;;;;;;;;3.50;3.50;;;;;;;;5079307;27;45593;-80
2021/06/22 04:57:44;;;;;;;;;4.00;4.00;;;;;;;;5072223;27;45804;-80
2021/06/22 05:00:10;;;;;;;;;7.00;5.00;;;;;;;;5075325;27;46663;-80
2021/06/22 05:02:35;;;;;;;;;6.25;5.00;;;;;;;;5070676;27;45784;-81
2021/06/22 05:05:04;;;;;;;;;7.00;6.00;;;;;;;;5067030;27;48784;-80
2021/06/22 05:07:30;;;;;;;;;6.00;6.00;;;;;;;;5078262;27;45513;-80
2021/06/22 05:09:55;;;;;;;;;9.25;6.75;;;;;;;;5078354;27;46454;-81
2021/06/22 05:12:20;;;;;;;;;9.50;8.00;;;;;;;;5068911;27;45441;-80
2021/06/22 05:14:46;;;;;;;;;10.00;6.00;;;;;;;;5086541;27;45515;-80
2021/06/22 05:17:12;;;;;;;;;17.25;9.75;;;;;;;;5076583;27;45554;-80
2021/06/22 05:19:37;;;;;;;;;9.67;9.67;;;;;;;;5072066;27;47063;-80
2021/06/22 05:22:02;;;;;;;;;13.00;11.67;;;;;;;;5079461;27;45934;-80
2021/06/22 05:24:27;;;;;;;;;14.00;11.50;;;;;;;;5078955;27;45496;-80
2021/06/22 05:26:53;;;;;;;;;10.25;9.00;;;;;;;;5071546;27;45466;-80
2021/06/22 05:29:18;;;;;;;;;11.00;10.67;;;;;;;;5081459;27;47297;-80
2021/06/22 05:31:43;;;;;;;;;11.67;8.67;;;;;;;;5077211;27;45647;-80
2021/06/22 05:34:08;;;;;;;;;8.00;8.00;;;;;;;;5080674;27;46265;-80
2021/06/22 05:36:34;;;;;;;;;10.50;9.50;;;;;;;;5066837;27;46108;-80
2021/06/22 05:38:59;;;;;;;;;12.33;10.67;;;;;;;;5077860;27;46073;-80
2021/06/22 05:41:24;;;;;;;;;10.00;9.00;;;;;;;;5071749;27;46465;-80
2021/06/22 05:43:49;;;;;;;;;12.00;10.00;;;;;;;;5076169;27;45635;-80
2021/06/22 05:46:15;;;;;;;;;12.50;8.75;;;;;;;;5074903;27;45592;-80
2021/06/22 05:48:40;;;;;;;;;9.75;8.00;;;;;;;;5076072;27;46758;-80
2021/06/22 05:51:05;;;;;;;;;9.75;7.00;;;;;;;;5066371;27;45797;-80
2021/06/22 05:53:30;;;;;;;;;8.75;8.00;;;;;;;;5054266;28;45981;-80
2021/06/22 05:55:56;;;;;;;;;9.00;7.67;;;;;;;;5071459;27;45569;-80
2021/06/22 05:58:21;;;;;;;;;11.33;9.00;;;;;;;;5078443;27;45958;-81
2021/06/22 06:00:47;;;;;;;;;9.50;9.25;;;;;;;;5060694;27;45563;-80
2021/06/22 06:03:13;;;;;;;;;12.75;9.25;;;;;;;;5072510;27;45657;-80
2021/06/22 06:05:38;;;;;;;;;12.75;8.00;;;;;;;;5077237;27;45456;-80
2021/06/22 06:08:04;;;;;;;;;9.50;8.00;;;;;;;;5052295;27;47213;-80
2021/06/22 06:10:29;;;;;;;;;8.25;8.00;;;;;;;;5074459;27;45774;-80
2021/06/22 06:12:54;;;;;;;;;7.00;7.00;;;;;;;;5059507;27;45625;-80
2021/06/22 06:15:20;;;;;;;;;10.50;8.75;;;;;;;;5049337;27;45607;-80
2021/06/22 06:17:45;;;;;;;;;10.75;9.75;;;;;;;;5072849;27;46162;-80
2021/06/22 06:20:12;;;;;;;;;12.50;11.00;;;;;;;;5068686;27;45480;-79
2021/06/22 06:22:38;;;;;;;;;8.25;8.00;;;;;;;;5061800;27;45650;-80
2021/06/22 06:25:07;;;;;;;;;12.75;11.00;;;;;;;;5077105;27;45555;-80
2021/06/22 06:30:07;;;;;;;;;11.75;11.00;;;;;;;;5076494;27;54393;-80
2021/06/22 06:32:32;;;;;;;;;12.50;9.00;;;;;;;;5080864;27;45579;-80
2021/06/22 06:34:57;;;;;;;;;11.50;8.50;;;;;;;;5076725;27;45427;-80
2021/06/22 06:37:23;;;;;;;;;11.00;11.00;;;;;;;;5081377;27;45657;-80
2021/06/22 06:39:48;;;;;;;;;13.00;10.00;;;;;;;;5065980;27;45517;-80
2021/06/22 06:42:13;;;;;;;;;11.67;11.33;;;;;;;;5073387;27;48556;-80
2021/06/22 06:44:38;;;;;;;;;9.67;9.00;;;;;;;;5083376;27;45339;-80
2021/06/22 06:47:04;;;;;;;;;15.33;12.67;;;;;;;;5075647;27;45389;-80
2021/06/22 06:49:29;;;;;;;;;10.00;9.00;;;;;;;;5078280;27;45554;-80
2021/06/22 06:51:55;;;;;;;;;10.25;10.25;;;;;;;;5075991;27;47627;-80
2021/06/22 06:54:20;;;;;;;;;12.75;8.75;;;;;;;;5066881;27;45741;-80
2021/06/22 06:56:45;;;;;;;;;15.25;12.00;;;;;;;;5069312;27;46041;-79
2021/06/22 06:59:11;;;;;;;;;10.00;8.00;;;;;;;;5071401;27;45418;-79
2021/06/22 07:01:36;;;;;;;;;13.75;12.75;;;;;;;;5048406;27;47904;-79
2021/06/22 07:04:01;;;;;;;;;12.75;10.00;;;;;;;;5062801;27;45501;-79
2021/06/22 07:06:26;;;;;;;;;13.50;11.00;;;;;;;;5065796;27;47520;-79
2021/06/22 07:08:52;;;;;;;;;12.50;10.00;;;;;;;;5075387;27;46236;-79
2021/06/22 07:11:19;;;;;;;;;13.25;10.75;;;;;;;;5053250;27;45485;-79
2021/06/22 07:13:49;;;;;;;;;13.00;12.00;;;;;;;;5070907;27;45611;-84
2021/06/22 07:16:15;;;;;;;;;13.25;11.00;;;;;;;;5080654;27;46400;-79
2021/06/22 07:18:47;;;;;;;;;12.25;11.00;;;;;;;;5068632;27;51087;-79
2021/06/22 07:21:12;;;;;;;;;11.25;9.25;;;;;;;;5075588;27;45429;-79
2021/06/22 07:23:38;;;;;;;;;15.00;12.00;;;;;;;;5080743;27;45577;-80
2021/06/22 07:26:03;;;;;;;;;11.50;10.00;;;;;;;;5064108;27;46581;-78
2021/06/22 07:28:29;;;;;;;;;10.75;10.00;;;;;;;;5057762;27;45597;-79
2021/06/22 07:30:54;;;;;;;;;14.50;12.50;;;;;;;;5072354;27;45513;-79
2021/06/22 07:33:19;;;;;;;;;10.50;10.00;;;;;;;;5078124;27;45474;-79
2021/06/22 07:35:45;;;;;;;;;10.50;10.50;;;;;;;;5077694;27;46367;-81
2021/06/22 07:40:45;;;;;;;;;19.00;17.00;;;;;;;;5401698;22;45802;-78
2021/06/22 07:43:10;;;;;;;;;27.00;22.50;;;;;;;;5029459;28;45708;-78
2021/06/22 07:45:35;;;;;;;;;24.25;24.00;;;;;;;;5022153;28;46968;-78
2021/06/22 07:48:01;;;;;;;;;29.33;25.00;;;;;;;;5247731;22;45786;-78
2021/06/22 07:58:11;;;;;;;;;26.75;25.25;;;;;;;;5833637;22;46148;-89
2021/06/22 08:00:41;;;;;;;;;30.25;28.50;;;;;;;;5420447;22;46415;-82
2021/06/22 08:03:07;;;;;;;;;33.00;28.25;;;;;;;;5075157;27;45377;-83
2021/06/22 08:05:33;;;;;;;;;31.25;29.50;;;;;;;;5103984;27;46825;-81
2021/06/22 08:07:58;;;;;;;;;26.00;23.75;;;;;;;;5093371;27;45655;-81
2021/06/22 08:10:23;;;;;;;;;28.00;23.00;;;;;;;;5739277;22;45068;-92
2021/06/22 08:20:35;;;;;;;;;20.25;17.25;;;;;;;;5372032;22;46700;-92
2021/06/22 08:23:01;;;;;;;;;17.50;17.50;;;;;;;;5074176;27;45290;-92
2021/06/22 08:28:02;;;;;;;;;22.75;19.25;;;;;;;;4880049;25;45492;-81
2021/06/22 08:30:28;;;;;;;;;18.75;16.25;;;;;;;;5085776;27;45480;-80
2021/06/22 08:32:53;;;;;;;;;32.25;20.25;;;;;;;;5100157;27;45712;-82
2021/06/22 08:35:18;;;;;;;;;23.00;21.25;;;;;;;;5082121;27;49918;-80
2021/06/22 08:37:44;;;;;;;;;22.00;19.75;;;;;;;;5093425;27;46529;-81
2021/06/22 08:40:10;;;;;;;;;17.00;16.00;;;;;;;;5096819;27;45569;-81
2021/06/22 08:42:36;;;;;;;;;26.25;19.75;;;;;;;;5097416;27;49070;-81
2021/06/22 08:45:02;;;;;;;;;17.50;14.00;;;;;;;;5089816;27;46612;-81
2021/06/22 08:47:28;;;;;;;;;21.00;19.75;;;;;;;;5091586;27;45599;-82
2021/06/22 08:49:55;;;;;;;;;21.75;17.00;;;;;;;;5095417;27;47446;-81
2021/06/22 08:52:23;;;;;;;;;21.00;19.50;;;;;;;;5090909;27;45691;-81
2021/06/22 08:54:49;;;;;;;;;22.25;20.75;;;;;;;;5102212;27;45491;-81
2021/06/22 08:57:14;;;;;;;;;21.50;19.50;;;;;;;;5094024;27;45452;-81
2021/06/22 08:59:43;;;;;;;;;20.00;18.25;;;;;;;;5101315;27;45538;-83
2021/06/22 09:02:08;;;;;;;;;25.25;20.50;;;;;;;;5081874;27;47759;-81
2021/06/22 09:04:33;;;;;;;;;22.00;20.25;;;;;;;;5089775;27;48449;-81
2021/06/22 09:06:59;;;;;;;;;22.50;19.25;;;;;;;;5097085;27;45586;-81
2021/06/22 09:09:37;;;;;;;;;20.33;17.67;;;;;;;;5097646;27;48894;-80
2021/06/22 09:12:05;;;;;;;;;23.75;18.75;;;;;;;;5087460;27;45572;-81
2021/06/22 09:14:38;;;;;;;;;19.75;17.50;;;;;;;;5099060;27;46361;-81
2021/06/22 09:17:05;;;;;;;;;22.00;19.25;;;;;;;;5087098;27;45540;-80
2021/06/22 09:19:31;;;;;;;;;21.75;19.25;;;;;;;;5100923;27;45495;-81
2021/06/22 09:21:57;;;;;;;;;23.25;19.25;;;;;;;;5104880;27;45504;-80
2021/06/22 09:24:26;;;;;;;;;25.00;23.50;;;;;;;;5091182;27;45510;-80
2021/06/22 09:26:55;;;;;;;;;25.50;20.25;;;;;;;;5099683;27;45575;-82
2021/06/22 09:29:21;;;;;;;;;21.75;18.25;;;;;;;;5083262;27;46345;-81
2021/06/22 09:32:00;;;;;;;;;18.75;17.75;;;;;;;;5099083;27;47317;-81
2021/06/22 09:34:26;;;;;;;;;23.25;19.00;;;;;;;;5073529;27;47352;-81
2021/06/22 09:36:52;;;;;;;;;22.25;21.25;;;;;;;;5095369;27;45553;-81
2021/06/22 09:39:18;;;;;;;;;23.50;20.50;;;;;;;;5097975;27;45991;-81
2021/06/22 09:41:44;;;;;;;;;21.50;21.00;;;;;;;;5101589;27;45406;-83
2021/06/22 09:44:14;;;;;;;;;20.75;19.50;;;;;;;;5098010;27;45621;-81
2021/06/22 09:46:44;;;;;;;;;24.25;20.50;;;;;;;;5091727;27;45607;-81
2021/06/22 09:49:15;;;;;;;;;23.50;20.75;;;;;;;;5097660;27;45582;-81
2021/06/22 09:51:57;;;;;;;;;23.25;19.25;;;;;;;;5090277;27;45551;-80
2021/06/22 09:54:25;;;;;;;;;20.25;18.00;;;;;;;;5095027;27;45495;-81
2021/06/22 09:56:58;;;;;;;;;22.50;19.50;;;;;;;;5102863;27;46039;-81
2021/06/22 09:59:23;;;;;;;;;27.25;20.50;;;;;;;;5082609;27;45694;-80
2021/06/22 10:01:52;;;;;;;;;22.25;17.75;;;;;;;;5088939;27;45791;-80
2021/06/22 10:04:21;;;;;;;;;21.25;18.25;;;;;;;;5105503;27;46966;-81
2021/06/22 10:06:58;;;;;;;;;26.50;22.00;;;;;;;;5083182;27;45580;-81
2021/06/22 10:09:46;;;;;;;;;19.00;17.75;;;;;;;;5087857;27;53295;-81
2021/06/22 10:12:13;;;;;;;;;23.00;21.25;;;;;;;;5085344;27;46104;-81
2021/06/22 10:14:38;;;;;;;;;27.25;23.75;;;;;;;;5103757;27;45471;-82
2021/06/22 10:17:05;;;;;;;;;23.00;21.67;;;;;;;;5084355;27;45418;-83
2021/06/22 10:19:31;;;;;;;;;33.00;23.50;;;;;;;;5077863;27;44910;-85
2021/06/22 10:21:57;;;;;;;;;36.25;25.00;;;;;;;;5104913;27;46083;-83
2021/06/22 10:24:24;;;;;;;;;28.50;24.00;;;;;;;;5084255;27;47735;-84
2021/06/22 10:26:50;;;;;;;;;30.25;25.50;;;;;;;;5098291;27;45808;-84
2021/06/22 10:29:18;;;;;;;;;27.75;24.00;;;;;;;;5096977;27;45760;-85
2021/06/22 10:31:44;;;;;;;;;34.00;26.50;;;;;;;;5096661;27;45686;-86
2021/06/22 10:34:09;;;;;;;;;30.50;25.00;;;;;;;;5088626;27;48162;-84
2021/06/22 10:36:38;;;;;;;;;33.25;27.00;;;;;;;;5090310;27;47789;-84
2021/06/22 10:39:11;;;;;;;;;34.25;26.75;;;;;;;;5097163;27;45659;-85
2021/06/22 10:41:40;;;;;;;;;35.75;29.25;;;;;;;;5091752;27;48428;-85
2021/06/22 10:44:27;;;;;;;;;33.50;28.25;;;;;;;;5113701;27;32145;-86
2021/06/22 10:47:11;;;;;;;;;27.00;21.25;;;;;;;;5089183;27;46658;-85
2021/06/22 10:49:55;;;;;;;;;26.00;23.75;;;;;;;;5090220;27;48250;-84
2021/06/22 10:52:40;;;;;;;;;27.00;22.50;;;;;;;;5074095;27;45542;-85
2021/06/22 10:55:05;;;;;;;;;22.50;18.75;;;;;;;;5106003;27;46517;-82
2021/06/22 10:57:49;;;;;;;;;18.75;15.25;;;;;;;;5086246;27;45584;-82
2021/06/22 11:00:15;;;;;;;;;24.00;17.00;;;;;;;;5101316;27;45393;-82
2021/06/22 11:02:58;;;;;;;;;17.00;14.25;;;;;;;;5107401;27;46191;-82
2021/06/22 11:05:24;;;;;;;;;24.75;17.00;;;;;;;;5093295;27;47458;-83
2021/06/22 11:08:08;;;;;;;;;21.75;19.75;;;;;;;;5103662;27;45612;-83
2021/06/22 11:10:33;;;;;;;;;23.75;19.50;;;;;;;;5136346;27;8795;-82
2021/06/22 11:12:59;;;;;;;;;25.00;18.33;;;;;;;;5132511;27;9132;-82
2021/06/22 11:15:43;;;;;;;;;20.25;18.00;;;;;;;;5139169;27;9251;-81
2021/06/22 11:18:10;;;;;;;;;22.00;16.75;;;;;;;;5139836;27;12845;-81
2021/06/22 11:20:59;;;;;;;;;16.00;14.50;;;;;;;;5159228;27;8760;-85
2021/06/22 11:23:24;;;;;;;;;17.25;13.25;;;;;;;;5034922;28;8874;-83
2021/06/22 11:26:05;;;;;;;;;18.50;12.75;;;;;;;;5041551;28;8859;-81
2021/06/22 11:28:48;;;;;;;;;18.25;12.25;;;;;;;;5042761;28;8828;-83
2021/06/22 11:31:30;;;;;;;;;17.75;14.00;;;;;;;;5038693;28;8795;-83
2021/06/22 11:34:02;;;;;;;;;14.50;11.50;;;;;;;;5043225;28;10502;-82
2021/06/22 11:36:28;;;;;;;;;7.00;7.00;;;;;;;;5023899;28;45018;-82
2021/06/22 11:39:10;;;;;;;;;10.75;9.00;;;;;;;;5038059;28;43108;-82
2021/06/22 11:41:36;;;;;;;;;8.25;5.75;;;;;;;;5038169;28;28319;-83
2021/06/22 11:44:07;;;;;;;;;9.25;8.00;;;;;;;;5034869;28;28297;-81
2021/06/22 11:46:34;;;;;;;;;5.50;5.50;;;;;;;;5031530;28;44372;-82
2021/06/22 11:49:00;;;;;;;;;5.75;4.00;;;;;;;;5035264;28;28330;-82
2021/06/22 11:51:44;;;;;;;;;8.00;5.25;;;;;;;;5017912;28;28496;-83
2021/06/22 11:54:09;;;;;;;;;4.25;2.50;;;;;;;;5067171;27;28047;-82
2021/06/22 11:56:37;;;;;;;;;2.00;2.00;;;;;;;;5112334;27;11025;-84
2021/06/22 11:59:03;;;;;;;;;4.50;2.25;;;;;;;;5102937;27;8838;-86
2021/06/22 12:01:28;;;;;;;;;6.00;3.75;;;;;;;;5111558;27;9952;-84
2021/06/22 12:03:54;;;;;;;;;4.25;3.00;;;;;;;;5104551;27;28805;-83
2021/06/22 12:06:21;;;;;;;;;4.00;3.00;;;;;;;;5112522;27;12211;-83
2021/06/22 12:08:50;;;;;;;;;2.50;2.50;;;;;;;;3496079;27;20879301;-83
2021/06/22 12:11:29;;;;;;;;;3.00;3.00;;;;;;;;5102562;27;150236;-84
2021/06/22 12:13:55;;;;;;;;;4.75;3.00;;;;;;;;5110316;27;28557;-84
2021/06/22 12:16:23;;;;;;;;;3.75;3.00;;;;;;;;5101522;27;30107;-83
2021/06/22 12:18:48;;;;;;;;;3.00;3.00;;;;;;;;5105311;27;28481;-83
2021/06/22 12:21:14;;;;;;;;;2.00;2.00;;;;;;;;5094905;27;29873;-84
2021/06/22 12:23:45;;;;;;;;;6.75;2.00;;;;;;;;5116812;27;28627;-85
2021/06/22 12:26:12;;;;;;;;;3.75;3.00;;;;;;;;5114739;27;10323;-83
2021/06/22 12:28:37;;;;;;;;;4.25;3.25;;;;;;;;5124139;27;14304;-85
2021/06/22 12:31:04;;;;;;;;;5.50;3.00;;;;;;;;5139917;27;8827;-84
2021/06/22 12:33:35;;;;;;;;;3.00;2.00;;;;;;;;5136137;27;9396;-83
2021/06/22 12:36:01;;;;;;;;;3.75;2.00;;;;;;;;5115857;27;45674;-85
2021/06/22 12:38:28;;;;;;;;;3.50;2.25;;;;;;;;5129582;27;44850;-83
2021/06/22 12:40:58;;;;;;;;;0.00;0.00;;;;;;;;5136722;27;11151;-83
2021/06/22 12:43:40;;;;;;;;;4.00;2.00;;;;;;;;5104607;27;45501;-83
2021/06/22 12:46:06;;;;;;;;;2.75;2.75;;;;;;;;5099867;27;46188;-83
2021/06/22 12:48:32;;;;;;;;;4.00;2.75;;;;;;;;5098859;27;45579;-84
2021/06/22 12:50:58;;;;;;;;;7.75;3.00;;;;;;;;5100220;27;45966;-84
2021/06/22 12:53:23;;;;;;;;;2.00;2.00;;;;;;;;5089037;27;45793;-84
2021/06/22 12:56:00;;;;;;;;;;;;;;;;;;;;;
2021/06/22 12:58:43;;;;;;;;;4.00;2.00;;;;;;;;5108916;27;71917;-84
2021/06/22 13:01:24;;;;;;;;;5.00;2.75;;;;;;;;5079824;27;58312;-84
2021/06/22 13:09:01;;;;;;;;;4.75;4.75;;;;;;;;5093025;25;45495;-89
2021/06/22 13:11:28;;;;;;;;;5.50;4.25;;;;;;;;5099548;27;46546;-89
2021/06/22 13:14:05;;;;;;;;;6.25;5.75;;;;;;;;5071505;22;45833;-93
2021/06/22 13:16:30;;;;;;;;;5.00;5.00;;;;;;;;5085669;27;45626;-93
2021/06/22 13:19:00;;;;;;;;;7.50;4.00;;;;;;;;5092956;27;45480;-91
2021/06/22 13:21:48;;;;;;;;;7.00;6.00;;;;;;;;5096101;27;45452;-88
2021/06/22 13:24:38;;;;;;;;;9.25;6.25;;;;;;;;5090153;27;45443;-87
2021/06/22 13:27:06;;;;;;;;;7.50;6.00;;;;;;;;5206303;22;45420;-83
2021/06/22 13:29:50;;;;;;;;;9.75;6.75;;;;;;;;5073482;27;45627;-82
2021/06/22 13:32:29;;;;;;;;;9.00;7.00;;;;;;;;5087603;22;45943;-91
2021/06/22 13:34:56;;;;;;;;;13.00;9.25;;;;;;;;5073882;27;45579;-91
2021/06/22 13:37:21;;;;;;;;;9.25;6.25;;;;;;;;5083052;27;45617;-90
2021/06/22 13:40:00;;;;;;;;;11.25;7.25;;;;;;;;5079973;27;45432;-91
2021/06/22 13:42:27;;;;;;;;;8.25;8.25;;;;;;;;5057546;28;47179;-91
2021/06/22 13:44:53;;;;;;;;;6.50;6.50;;;;;;;;5060572;28;45762;-91
2021/06/22 13:49:59;;;;;;;;;9.50;9.50;;;;;;;;1462206;25;46229;-83
2021/06/22 13:52:24;;;;;;;;;8.25;6.75;;;;;;;;5098014;27;45497;-81
2021/06/22 13:54:53;;;;;;;;;12.00;8.75;;;;;;;;5102113;27;45728;-83
2021/06/22 13:57:18;;;;;;;;;8.00;5.75;;;;;;;;5100032;27;45433;-84
2021/06/22 14:02:12;;;;;;;;;9.25;6.00;;;;;;;;5087294;27;45750;-83
2021/06/22 14:10:24;;;;;;;;;8.50;6.50;;;;;;;;5727628;22;45803;-93
2021/06/22 14:12:50;;;;;;;;;7.50;5.00;;;;;;;;5088078;28;45472;-93
2021/06/22 14:15:15;;;;;;;;;10.25;6.00;;;;;;;;5327429;22;31586;-92
2021/06/22 14:17:42;;;;;;;;;6.00;5.75;;;;;;;;4984482;28;45448;-92
2021/06/22 14:20:08;;;;;;;;;7.00;6.25;;;;;;;;4996427;28;45693;-92
2021/06/22 14:22:33;;;;;;;;;8.00;6.50;;;;;;;;4975323;28;47146;-91
2021/06/22 14:24:58;;;;;;;;;9.33;7.33;;;;;;;;5012682;23;46196;-82
2021/06/22 14:27:23;;;;;;;;;11.00;5.67;;;;;;;;5018406;28;45492;-83
2021/06/22 14:29:49;;;;;;;;;8.00;6.00;;;;;;;;5038783;28;45490;-83
2021/06/22 14:32:15;;;;;;;;;6.00;6.00;;;;;;;;5044827;28;45686;-81
2021/06/22 14:34:40;;;;;;;;;10.00;7.75;;;;;;;;5040872;28;44788;-82
2021/06/22 14:37:08;;;;;;;;;10.50;8.75;;;;;;;;5051551;28;45525;-82
2021/06/22 14:39:50;;;;;;;;;8.00;7.25;;;;;;;;5058125;28;44844;-82
2021/06/22 14:42:15;;;;;;;;;8.00;7.25;;;;;;;;5047773;28;51432;-83
2021/06/22 14:44:40;;;;;;;;;7.00;7.00;;;;;;;;5031010;28;45620;-82
2021/06/22 14:47:08;;;;;;;;;6.75;6.75;;;;;;;;5035130;28;45532;-83
2021/06/22 15:12:49;;;;;;;;;9.75;8.25;;;;;;;;4880250;26;45617;-81
2021/06/22 15:20:27;;;;;;;;;13.25;9.25;;;;;;;;5391151;22;46790;-82
2021/06/22 15:25:43;;;;;;;;;6.00;6.00;;;;;;;;5122662;22;44859;-95
2021/06/22 15:28:22;;;;;;;;;9.25;8.00;;;;;;;;5092847;27;45361;-96
2021/06/22 15:30:49;;;;;;;;;12.50;7.75;;;;;;;;5124859;27;45419;-96
2021/06/22 15:33:14;;;;;;;;;8.00;8.00;;;;;;;;5115269;27;47521;-93
2021/06/22 15:35:39;;;;;;;;;10.00;8.25;;;;;;;;5116894;27;45359;-96
2021/06/22 15:38:05;;;;;;;;;9.25;9.25;;;;;;;;5123835;27;45342;-94
2021/06/22 15:40:55;;;;;;;;;;;;;;;;;;;;;
2021/06/22 15:43:58;;;;;;;;;9.25;9.25;;;;;;;;5241720;22;43952;-82
2021/06/22 15:46:25;;;;;;;;;10.00;8.00;;;;;;;;5059641;28;44914;-81
2021/06/22 15:48:53;;;;;;;;;9.75;9.50;;;;;;;;5095038;27;44705;-82
2021/06/22 15:53:56;;;;;;;;;10.50;8.00;;;;;;;;5544635;22;28535;-83
2021/06/22 15:56:23;;;;;;;;;13.50;10.25;;;;;;;;5078493;27;29084;-80